Terminal Aerodrome Forecast
Issued by NWS

Home | Current Version | Previous Version | Text Only | Print | Product List | Glossary On
Versions: 1 2 3 4 5 6 7 8 9 10 11 12 13 14 15
000
FTPQ31 PGUM 012110 AAA
TAFGUM
TAF AMD

TAF AMD
PGSN 012110Z 0121/0218 02006KT P6SM VCSH SCT015 SCT035 BKN120
     FM020200 07012G20KT P6SM VCSH SCT018 SCT035 BKN120
     FM021100 08013G25KT 6SM SHRA SCT015 BKN030 BKN090=

USA.gov is the U.S. government's official web portal to all federal, state and local government web resources and services.